Time;durP1;ratioP1;P1;durP2;ratioP2;P2;SDS_P1;SDS_P2;PMS_P1;PMS_P2;Temp;Humidity;BMP_temperature;BMP_pressure;BME280_temperature;BME280_humidity;BME280_pressure;Samples;Min_cycle;Max_cycle;Signal;HPM_P1;HPM_P2
2023/07/20 00:01:38;;;;;;;4.73;3.47;;;18.00;99.90;;;;;;5111306;28;20496;-60
2023/07/20 00:04:05;;;;;;;6.90;3.70;;;18.10;99.90;;;;;;5113923;28;20501;-59
2023/07/20 00:06:33;;;;;;;5.40;3.80;;;18.20;99.90;;;;;;5107698;28;20528;-59
2023/07/20 00:09:00;;;;;;;4.20;3.83;;;18.10;99.90;;;;;;5114539;28;20800;-60
2023/07/20 00:11:28;;;;;;;3.63;3.33;;;18.00;99.90;;;;;;5096412;28;20993;-62
2023/07/20 00:13:55;;;;;;;5.73;3.73;;;;;;;;;;5095130;28;20449;-60
2023/07/20 00:16:22;;;;;;;6.00;3.47;;;18.20;99.90;;;;;;5095545;28;20540;-60
2023/07/20 00:18:50;;;;;;;3.13;2.83;;;18.30;99.90;;;;;;5096782;28;20496;-59
2023/07/20 00:21:17;;;;;;;4.73;3.37;;;18.30;99.90;;;;;;5098668;28;20461;-59
2023/07/20 00:23:44;;;;;;;7.40;3.17;;;18.20;99.90;;;;;;5099808;28;20484;-59
2023/07/20 00:26:11;;;;;;;4.33;3.87;;;;;;;;;;5098250;28;20520;-60
2023/07/20 00:28:38;;;;;;;4.50;3.50;;;17.90;99.90;;;;;;5098970;28;20476;-60
2023/07/20 00:31:05;;;;;;;6.00;4.50;;;;;;;;;;5099252;28;20476;-61
2023/07/20 00:33:32;;;;;;;3.47;3.27;;;17.50;99.90;;;;;;5099676;28;20480;-61
2023/07/20 00:36:01;;;;;;;4.80;4.30;;;17.70;99.90;;;;;;5101866;28;20496;-59
2023/07/20 00:38:27;;;;;;;6.30;4.40;;;17.70;99.90;;;;;;5117867;28;20462;-54
2023/07/20 00:40:54;;;;;;;3.60;3.30;;;17.60;99.90;;;;;;5117323;28;20450;-61
2023/07/20 00:43:21;;;;;;;6.17;3.43;;;17.60;99.90;;;;;;5113968;28;20438;-60
2023/07/20 00:45:48;;;;;;;7.23;3.17;;;;;;;;;;5113919;28;20481;-60
2023/07/20 00:48:16;;;;;;;4.37;3.40;;;;;;;;;;5095579;28;20445;-59
2023/07/20 00:50:43;;;;;;;5.80;3.63;;;;;;;;;;5095110;28;20525;-62
2023/07/20 00:53:12;;;;;;;4.10;3.57;;;17.40;99.90;;;;;;5094651;28;20484;-60
2023/07/20 00:55:39;;;;;;;4.40;3.97;;;17.50;99.90;;;;;;5094817;28;20512;-61
2023/07/20 00:58:06;;;;;;;6.10;3.80;;;17.90;99.90;;;;;;5094504;28;20972;-60
2023/07/20 01:00:34;;;;;;;5.20;4.70;;;;;;;;;;5094939;28;20458;-59
2023/07/20 01:03:01;;;;;;;4.10;3.73;;;;;;;;;;5095566;28;20473;-60
2023/07/20 01:05:39;;;;;;;4.53;4.13;;;17.00;99.90;;;;;;5094757;28;20477;-60
2023/07/20 01:08:12;;;;;;;4.93;4.30;;;17.40;99.90;;;;;;5094434;28;20477;-59
2023/07/20 01:10:46;;;;;;;7.43;5.30;;;17.20;99.90;;;;;;5094521;28;20476;-60
2023/07/20 01:13:15;;;;;;;6.77;4.20;;;17.20;99.90;;;;;;5107518;28;20542;-58
2023/07/20 01:15:42;;;;;;;5.33;4.60;;;17.20;99.90;;;;;;5117453;28;20429;-60
2023/07/20 01:18:09;;;;;;;4.90;3.87;;;17.60;99.90;;;;;;5116251;28;20473;-58
2023/07/20 01:20:38;;;;;;;4.20;3.70;;;17.00;99.90;;;;;;5116628;28;20449;-60
2023/07/20 01:23:37;;;;;;;6.07;4.33;;;17.20;99.90;;;;;;5115783;28;20497;-57
2023/07/20 01:26:23;;;;;;;5.20;4.43;;;17.20;99.90;;;;;;5112985;28;20491;-59
2023/07/20 01:29:07;;;;;;;4.17;3.50;;;17.10;99.90;;;;;;5108272;28;20480;-60
2023/07/20 01:31:37;;;;;;;4.03;3.63;;;17.50;99.90;;;;;;5104091;28;20478;-60
2023/07/20 01:34:06;;;;;;;7.40;4.30;;;17.70;99.90;;;;;;5101121;28;20540;-59
2023/07/20 01:36:36;;;;;;;4.70;4.03;;;17.10;99.90;;;;;;5103469;28;20488;-57
2023/07/20 01:39:04;;;;;;;10.50;4.17;;;17.40;99.90;;;;;;5115515;28;20454;-59
2023/07/20 01:41:31;;;;;;;4.53;3.80;;;17.10;99.90;;;;;;5114583;28;20454;-59
2023/07/20 01:43:59;;;;;;;5.27;4.20;;;17.00;99.90;;;;;;5116794;28;20492;-58
2023/07/20 01:46:26;;;;;;;4.10;3.70;;;17.10;99.90;;;;;;5116585;28;20483;-59
2023/07/20 01:48:55;;;;;;;4.33;3.93;;;16.80;99.90;;;;;;5116869;28;20464;-59
2023/07/20 01:51:22;;;;;;;10.37;5.03;;;;;;;;;;5116667;28;20457;-58
2023/07/20 01:53:49;;;;;;;5.67;4.50;;;17.00;99.90;;;;;;5115700;28;20505;-60
2023/07/20 01:56:16;;;;;;;6.53;4.63;;;;;;;;;;5113699;28;20465;-59
2023/07/20 01:58:43;;;;;;;5.57;5.00;;;;;;;;;;5113022;28;20483;-60
2023/07/20 02:01:10;;;;;;;6.73;3.63;;;16.80;99.90;;;;;;5101675;28;20528;-61
2023/07/20 02:03:37;;;;;;;5.63;4.83;;;16.90;99.90;;;;;;5094179;28;20532;-60
2023/07/20 02:06:05;;;;;;;6.00;5.40;;;17.40;99.90;;;;;;5093890;28;20531;-60
2023/07/20 02:08:32;;;;;;;4.97;4.47;;;16.90;99.90;;;;;;5093843;28;20576;-62
2023/07/20 02:10:59;;;;;;;5.73;5.10;;;;;;;;;;5093780;28;20801;-61
2023/07/20 02:13:26;;;;;;;5.97;5.03;;;17.40;99.90;;;;;;5094104;28;20449;-61
2023/07/20 02:15:53;;;;;;;5.70;5.07;;;;;;;;;;5096081;28;20528;-62
2023/07/20 02:18:20;;;;;;;4.57;4.10;;;17.00;99.90;;;;;;5097719;28;20936;-60
2023/07/20 02:20:47;;;;;;;6.93;5.20;;;;;;;;;;5097498;28;20531;-60
2023/07/20 02:23:16;;;;;;;4.27;3.83;;;16.80;99.90;;;;;;5104511;28;20536;-61
2023/07/20 02:25:45;;;;;;;5.03;4.53;;;16.70;99.90;;;;;;5107522;28;20500;-60
2023/07/20 02:28:14;;;;;;;5.80;5.30;;;16.90;99.90;;;;;;5097491;28;20833;-59
2023/07/20 02:30:41;;;;;;;4.80;4.03;;;16.90;99.90;;;;;;5109056;28;20583;-59
2023/07/20 02:33:08;;;;;;;8.00;4.70;;;16.90;99.90;;;;;;5120441;28;20480;-61
2023/07/20 02:35:35;;;;;;;5.20;4.70;;;17.10;99.90;;;;;;5122485;28;20460;-59
2023/07/20 02:38:03;;;;;;;6.03;4.73;;;16.80;99.90;;;;;;5127403;28;20483;-60
2023/07/20 02:40:31;;;;;;;5.60;4.83;;;16.90;99.90;;;;;;5128834;28;20464;-61
2023/07/20 02:42:58;;;;;;;5.33;4.73;;;;;;;;;;5120014;28;20464;-61
2023/07/20 02:45:25;;;;;;;6.20;5.60;;;17.20;99.90;;;;;;5117564;28;20488;-61
2023/07/20 02:47:52;;;;;;;7.03;6.40;;;16.90;99.90;;;;;;5117667;28;20447;-59
2023/07/20 02:50:19;;;;;;;7.23;6.53;;;15.10;99.90;;;;;;5117581;28;20444;-59
2023/07/20 02:52:46;;;;;;;8.77;7.20;;;17.40;99.90;;;;;;5117792;28;20452;-59
2023/07/20 02:55:13;;;;;;;8.43;6.80;;;17.00;99.90;;;;;;5117674;28;20455;-60
2023/07/20 02:57:41;;;;;;;7.20;6.13;;;17.00;99.90;;;;;;5118325;28;20463;-60
2023/07/20 03:00:09;;;;;;;7.50;6.70;;;17.00;99.90;;;;;;5114774;28;20471;-60
2023/07/20 03:02:36;;;;;;;6.67;6.07;;;;;;;;;;5101810;28;20445;-59
2023/07/20 03:05:05;;;;;;;11.80;7.80;;;;;;;;;;5105559;28;20471;-60
2023/07/20 03:07:32;;;;;;;9.77;6.90;;;17.10;99.90;;;;;;5110928;28;20469;-60
2023/07/20 03:09:59;;;;;;;9.37;7.13;;;16.70;99.90;;;;;;5116395;28;20457;-60
2023/07/20 03:12:26;;;;;;;9.10;8.20;;;17.00;99.90;;;;;;5116174;28;20477;-59
2023/07/20 03:14:56;;;;;;;11.57;9.43;;;16.80;99.90;;;;;;5098120;28;20821;-58
2023/07/20 03:17:23;;;;;;;10.07;8.77;;;16.90;99.90;;;;;;5096359;28;20473;-61
2023/07/20 03:19:50;;;;;;;15.53;9.77;;;16.90;99.90;;;;;;5096785;28;20442;-60
2023/07/20 03:22:17;;;;;;;13.20;10.47;;;16.60;99.90;;;;;;5105049;28;20472;-58
2023/07/20 03:24:44;;;;;;;11.70;9.37;;;16.10;99.90;;;;;;5119159;28;20434;-58
2023/07/20 03:27:11;;;;;;;10.40;9.10;;;17.50;99.90;;;;;;5115294;28;20485;-59
2023/07/20 03:29:39;;;;;;;9.70;8.70;;;16.80;99.90;;;;;;5117498;28;20441;-57
2023/07/20 03:32:09;;;;;;;11.40;8.60;;;16.90;99.90;;;;;;5131502;28;20461;-60
2023/07/20 03:34:36;;;;;;;9.33;8.43;;;;;;;;;;5096603;28;20422;-61
2023/07/20 03:37:04;;;;;;;8.60;7.70;;;16.70;99.90;;;;;;5096381;28;20441;-60
2023/07/20 03:39:31;;;;;;;10.60;8.30;;;;;;;;;;5100049;28;20528;-59
2023/07/20 03:42:02;;;;;;;11.60;8.53;;;16.70;99.90;;;;;;5101086;28;20520;-61
2023/07/20 03:44:29;;;;;;;12.17;9.37;;;16.90;99.90;;;;;;5103802;28;20501;-60
2023/07/20 03:46:56;;;;;;;10.33;8.47;;;16.70;99.90;;;;;;5108060;28;20499;-61
2023/07/20 03:49:24;;;;;;;10.00;8.23;;;16.90;99.90;;;;;;5098078;28;20820;-59
2023/07/20 03:51:51;;;;;;;10.17;8.40;;;;;;;;;;5096217;28;20445;-59
2023/07/20 03:54:19;;;;;;;12.77;7.90;;;;;;;;;;5113383;28;20445;-61
2023/07/20 03:56:46;;;;;;;10.33;8.70;;;16.90;99.90;;;;;;5118538;28;20461;-59
2023/07/20 03:59:13;;;;;;;10.60;8.83;;;16.70;99.90;;;;;;5111535;28;20441;-59
2023/07/20 04:01:40;;;;;;;12.07;8.60;;;16.90;99.90;;;;;;5096161;28;20968;-60
2023/07/20 04:04:08;;;;;;;9.53;8.53;;;17.00;99.90;;;;;;5095485;28;20953;-60
2023/07/20 04:06:36;;;;;;;10.13;8.77;;;16.90;99.90;;;;;;5095359;28;20904;-60
2023/07/20 04:09:05;;;;;;;12.63;9.87;;;17.20;99.90;;;;;;5105161;28;20561;-57
2023/07/20 04:11:35;;;;;;;12.13;10.00;;;17.00;99.90;;;;;;5117638;28;20426;-59
2023/07/20 04:14:02;;;;;;;14.07;10.57;;;17.00;99.90;;;;;;5112660;28;20465;-59
2023/07/20 04:16:29;;;;;;;15.67;11.03;;;17.20;99.90;;;;;;5105579;28;20446;-61
2023/07/20 04:18:56;;;;;;;11.73;9.60;;;16.90;99.90;;;;;;5105914;28;20553;-61
2023/07/20 04:21:24;;;;;;;11.23;8.10;;;17.00;99.90;;;;;;5095631;28;20898;-60
2023/07/20 04:23:52;;;;;;;8.60;7.70;;;17.10;99.90;;;;;;5095128;28;20926;-61
2023/07/20 04:26:19;;;;;;;8.13;7.33;;;17.00;99.90;;;;;;5095404;28;20548;-61
2023/07/20 04:28:47;;;;;;;9.93;7.33;;;17.30;99.90;;;;;;5094846;28;20993;-59
2023/07/20 04:31:15;;;;;;;8.77;6.97;;;17.30;99.90;;;;;;5095144;28;20438;-59
2023/07/20 04:33:42;;;;;;;8.53;6.60;;;;;;;;;;5095329;28;20552;-59
2023/07/20 04:36:09;;;;;;;6.93;6.23;;;;;;;;;;5095030;28;20878;-61
2023/07/20 04:38:36;;;;;;;7.47;6.70;;;17.20;99.90;;;;;;5094847;28;20904;-62
2023/07/20 04:41:04;;;;;;;9.37;6.17;;;17.20;99.90;;;;;;5094909;28;20503;-60
2023/07/20 04:43:31;;;;;;;10.57;8.00;;;17.50;99.90;;;;;;5097740;28;20449;-60
2023/07/20 04:45:58;;;;;;;10.17;8.20;;;17.10;99.90;;;;;;5099775;28;20998;-60
2023/07/20 04:48:25;;;;;;;9.83;7.40;;;17.20;99.90;;;;;;5114245;28;20454;-59
2023/07/20 04:50:52;;;;;;;10.90;8.60;;;17.20;99.90;;;;;;5114400;28;20465;-60
2023/07/20 04:53:19;;;;;;;10.80;8.33;;;17.50;99.90;;;;;;5114144;28;20442;-58
2023/07/20 04:55:51;;;;;;;11.17;7.70;;;17.10;99.90;;;;;;5096511;28;20489;-61
2023/07/20 04:58:20;;;;;;;8.47;7.17;;;17.10;99.90;;;;;;5094911;28;20476;-57
2023/07/20 05:00:47;;;;;;;11.53;7.17;;;;;;;;;;5094807;28;20497;-60
2023/07/20 05:03:14;;;;;;;8.00;6.40;;;17.20;99.90;;;;;;5094766;28;20452;-59
2023/07/20 05:05:41;;;;;;;8.07;6.43;;;17.80;99.90;;;;;;5094599;28;20519;-60
2023/07/20 05:08:08;;;;;;;7.57;6.20;;;17.20;99.90;;;;;;5094573;28;20544;-61
2023/07/20 05:10:34;;;;;;;6.93;5.83;;;17.70;99.90;;;;;;5095820;28;20494;-59
2023/07/20 05:13:01;;;;;;;7.53;6.83;;;17.40;99.90;;;;;;5096567;28;20502;-61
2023/07/20 05:15:30;;;;;;;5.90;5.20;;;17.40;99.90;;;;;;5096602;28;20524;-58
2023/07/20 05:17:57;;;;;;;6.40;5.50;;;;;;;;;;5096795;28;20521;-59
2023/07/20 05:20:24;;;;;;;5.27;4.77;;;17.60;99.90;;;;;;5097770;28;20485;-59
2023/07/20 05:22:52;;;;;;;8.07;5.03;;;;;;;;;;5098682;28;20479;-61
2023/07/20 05:25:22;;;;;;;5.00;4.50;;;17.50;99.90;;;;;;5101647;28;20480;-59
2023/07/20 05:27:50;;;;;;;4.90;4.40;;;17.60;99.90;;;;;;5101170;28;20477;-60
2023/07/20 05:30:18;;;;;;;4.80;4.23;;;;;;;;;;5103525;28;20468;-61
2023/07/20 05:32:50;;;;;;;4.70;4.30;;;17.70;99.90;;;;;;5105719;28;20588;-60
2023/07/20 05:35:19;;;;;;;4.10;3.70;;;18.40;99.90;;;;;;5113282;28;20460;-60
2023/07/20 05:37:46;;;;;;;4.77;4.37;;;17.90;99.90;;;;;;5106862;28;20496;-60
2023/07/20 05:40:18;;;;;;;4.93;4.43;;;17.90;99.90;;;;;;5103970;28;20461;-60
2023/07/20 05:42:46;;;;;;;4.90;3.97;;;;;;;;;;5106080;28;20472;-57
2023/07/20 05:45:13;;;;;;;4.60;3.53;;;18.10;99.90;;;;;;5113572;28;20448;-61
2023/07/20 05:47:40;;;;;;;4.10;3.50;;;18.20;99.90;;;;;;5113249;28;20484;-59
2023/07/20 05:50:10;;;;;;;5.20;3.53;;;18.20;99.90;;;;;;5116583;28;20476;-58
2023/07/20 05:52:38;;;;;;;6.53;3.83;;;17.80;99.90;;;;;;5120017;28;20453;-59
2023/07/20 05:55:06;;;;;;;7.83;3.90;;;18.10;99.90;;;;;;5121040;28;20456;-59
2023/07/20 05:57:33;;;;;;;4.83;4.43;;;18.10;99.90;;;;;;5116480;28;20457;-61
2023/07/20 06:00:00;;;;;;;5.37;4.87;;;;;;;;;;5107284;28;20472;-60
2023/07/20 06:02:27;;;;;;;4.97;4.27;;;18.30;99.90;;;;;;5114471;28;20489;-59
2023/07/20 06:04:54;;;;;;;6.10;4.80;;;18.40;99.90;;;;;;5097917;28;20473;-60
2023/07/20 06:07:22;;;;;;;6.97;4.50;;;18.40;99.90;;;;;;5121406;28;20476;-56
2023/07/20 06:09:49;;;;;;;5.97;4.97;;;18.60;99.90;;;;;;5122276;28;20420;-54
2023/07/20 06:12:16;;;;;;;6.90;4.47;;;18.00;99.90;;;;;;5122062;28;20448;-53
2023/07/20 06:14:43;;;;;;;6.90;4.80;;;18.50;99.90;;;;;;5100815;28;20421;-60
2023/07/20 06:17:10;;;;;;;5.23;4.73;;;18.30;99.90;;;;;;5099328;28;20533;-61
2023/07/20 06:19:39;;;;;;;10.00;5.80;;;18.30;99.90;;;;;;5101763;28;20544;-61
2023/07/20 06:22:06;;;;;;;9.73;6.20;;;18.30;99.90;;;;;;5103312;28;20518;-60
2023/07/20 06:24:35;;;;;;;6.13;5.53;;;18.20;99.90;;;;;;5113320;28;20441;-57
2023/07/20 06:27:02;;;;;;;6.83;5.90;;;18.30;99.90;;;;;;5115597;28;20477;-60
2023/07/20 06:29:29;;;;;;;14.40;10.40;;;18.40;99.90;;;;;;5112528;28;20449;-61
2023/07/20 06:31:56;;;;;;;11.50;6.23;;;18.30;99.90;;;;;;5114578;28;20444;-60
2023/07/20 06:34:23;;;;;;;6.23;5.63;;;;;;;;;;5119109;28;20551;-59
2023/07/20 06:36:50;;;;;;;5.80;5.30;;;18.70;99.90;;;;;;5118005;28;20527;-60
2023/07/20 06:39:17;;;;;;;5.70;5.20;;;18.90;99.90;;;;;;5128649;27;20475;-51
2023/07/20 06:41:45;;;;;;;4.97;4.17;;;18.60;99.90;;;;;;5142028;27;20409;-56
2023/07/20 06:44:12;;;;;;;5.00;4.40;;;18.50;99.90;;;;;;5141939;27;20452;-53
2023/07/20 06:46:39;;;;;;;3.97;3.57;;;18.60;99.90;;;;;;5141916;27;20448;-52
2023/07/20 06:49:12;;;;;;;4.63;3.50;;;18.80;99.90;;;;;;5141757;27;20695;-54
2023/07/20 06:51:39;;;;;;;3.63;2.70;;;18.70;99.90;;;;;;5133996;27;20429;-60
2023/07/20 06:54:06;;;;;;;5.07;2.77;;;18.90;99.90;;;;;;5117290;28;20494;-60
2023/07/20 06:56:33;;;;;;;2.90;2.60;;;;;;;;;;5117499;28;20818;-58
2023/07/20 06:59:02;;;;;;;3.13;2.83;;;18.80;99.90;;;;;;5117556;28;20468;-60
2023/07/20 07:01:29;;;;;;;3.10;2.90;;;18.80;99.90;;;;;;5118912;28;20818;-59
2023/07/20 07:03:56;;;;;;;3.23;2.93;;;;;;;;;;5124515;28;20449;-60
2023/07/20 07:06:23;;;;;;;6.50;2.43;;;19.30;99.90;;;;;;5126240;28;20424;-58
2023/07/20 07:08:50;;;;;;;2.47;2.27;;;;;;;;;;5117764;28;20474;-59
2023/07/20 07:11:17;;;;;;;3.37;2.47;;;19.40;99.90;;;;;;5117462;28;20468;-59
2023/07/20 07:13:46;;;;;;;5.40;3.40;;;19.50;99.90;;;;;;5119192;28;20472;-60
2023/07/20 07:16:18;;;;;;;2.67;2.47;;;19.70;99.90;;;;;;5120100;28;20838;-62
2023/07/20 07:18:48;;;;;;;3.47;2.60;;;19.60;99.90;;;;;;5117231;28;20425;-60
2023/07/20 07:21:15;;;;;;;2.73;2.20;;;;;;;;;;5116964;28;20563;-62
2023/07/20 07:23:43;;;;;;;2.87;1.90;;;19.80;99.90;;;;;;5119241;28;20483;-60
2023/07/20 07:26:09;;;;;;;4.27;2.77;;;21.60;99.90;;;;;;5119563;28;20500;-58
2023/07/20 07:28:37;;;;;;;2.97;1.63;;;21.60;99.90;;;;;;5129069;28;20472;-58
2023/07/20 07:31:06;;;;;;;2.40;1.90;;;24.20;99.90;;;;;;5127863;28;20500;-57
2023/07/20 07:33:35;;;;;;;2.30;1.80;;;24.20;99.90;;;;;;5119175;28;20469;-60
2023/07/20 07:36:02;;;;;;;2.20;2.00;;;;;;;;;;5101886;28;20481;-60
2023/07/20 07:38:29;;;;;;;4.03;1.87;;;;;;;;;;5096163;28;20540;-59
2023/07/20 07:40:56;;;;;;;2.03;1.80;;;23.40;99.90;;;;;;5096049;28;20470;-59
2023/07/20 07:43:23;;;;;;;1.50;1.30;;;23.00;99.90;;;;;;5096443;28;20516;-61
2023/07/20 07:45:51;;;;;;;1.57;1.47;;;22.20;99.90;;;;;;5096204;28;20508;-59
2023/07/20 07:48:18;;;;;;;4.50;1.43;;;22.30;99.90;;;;;;5096183;28;20553;-61
2023/07/20 07:50:48;;;;;;;3.13;2.30;;;23.50;99.90;;;;;;5119219;28;20433;-53
2023/07/20 07:53:15;;;;;;;2.50;1.70;;;23.10;99.90;;;;;;5100491;28;20489;-61
2023/07/20 07:55:42;;;;;;;2.50;2.07;;;25.30;99.90;;;;;;5103847;28;20894;-59
2023/07/20 07:58:09;;;;;;;4.07;2.07;;;25.50;99.90;;;;;;5102485;28;20433;-59
2023/07/20 08:00:37;;;;;;;1.70;1.37;;;25.30;99.90;;;;;;5109966;28;20441;-56
2023/07/20 08:03:04;;;;;;;1.30;1.10;;;23.90;99.90;;;;;;5119171;28;20462;-60
2023/07/20 08:05:31;;;;;;;1.00;0.87;;;23.80;99.90;;;;;;5136005;28;20427;-57
2023/07/20 08:07:59;;;;;;;1.63;1.50;;;24.00;99.90;;;;;;5130404;28;20492;-60
2023/07/20 08:10:26;;;;;;;1.40;1.30;;;24.70;99.90;;;;;;5127274;28;20498;-59
2023/07/20 08:12:53;;;;;;;2.07;1.87;;;24.90;99.90;;;;;;5129821;28;20624;-57
2023/07/20 08:15:22;;;;;;;4.00;1.90;;;24.90;99.90;;;;;;5135400;28;20440;-60
2023/07/20 08:17:51;;;;;;;1.40;1.30;;;24.40;99.90;;;;;;5131308;28;20460;-59
2023/07/20 08:20:18;;;;;;;1.73;1.40;;;24.00;99.90;;;;;;5126027;28;20483;-60
2023/07/20 08:22:45;;;;;;;1.40;1.30;;;24.00;99.90;;;;;;5116399;28;20540;-60
2023/07/20 08:25:14;;;;;;;1.40;1.30;;;23.50;99.90;;;;;;5118537;28;20929;-60
2023/07/20 08:27:41;;;;;;;1.60;1.50;;;22.50;99.90;;;;;;5119548;28;20515;-61
2023/07/20 08:30:09;;;;;;;1.60;1.50;;;21.90;99.90;;;;;;5120542;28;20479;-58
2023/07/20 08:32:39;;;;;;;1.63;1.53;;;21.50;99.90;;;;;;5119998;28;20477;-58
2023/07/20 08:35:07;;;;;;;1.60;1.10;;;21.20;99.90;;;;;;5121134;28;20464;-59
2023/07/20 08:37:34;;;;;;;1.40;1.30;;;;;;;;;;5121263;28;20488;-61
2023/07/20 08:40:08;;;;;;;1.33;1.13;;;21.50;99.90;;;;;;5115782;28;20472;-60
2023/07/20 08:42:37;;;;;;;1.10;0.97;;;22.40;99.90;;;;;;5116780;28;20480;-60
2023/07/20 08:45:07;;;;;;;1.50;1.30;;;22.50;99.90;;;;;;5095242;28;20521;-60
2023/07/20 08:47:34;;;;;;;1.10;1.00;;;22.70;99.90;;;;;;5095002;28;20584;-60
2023/07/20 08:50:05;;;;;;;1.13;0.97;;;23.50;99.90;;;;;;5094774;28;20481;-60
2023/07/20 08:52:34;;;;;;;1.20;1.00;;;22.90;99.90;;;;;;5095057;28;21022;-60
2023/07/20 08:55:03;;;;;;;1.37;1.10;;;22.80;99.90;;;;;;5094698;28;20460;-58
2023/07/20 08:57:34;;;;;;;4.10;1.40;;;22.30;99.90;;;;;;5094643;28;20510;-60
2023/07/20 09:00:06;;;;;;;1.33;1.20;;;22.20;99.90;;;;;;5095103;28;20438;-61
2023/07/20 09:02:38;;;;;;;1.37;1.03;;;22.00;99.90;;;;;;5094978;28;20441;-59
2023/07/20 09:05:06;;;;;;;1.80;1.30;;;22.00;99.90;;;;;;5094544;28;20897;-59
2023/07/20 09:07:35;;;;;;;1.80;1.37;;;21.70;99.90;;;;;;5094621;28;20512;-59
2023/07/20 09:10:05;;;;;;;1.20;1.10;;;;;;;;;;5095605;28;20538;-62
2023/07/20 09:12:35;;;;;;;1.50;1.40;;;22.40;99.90;;;;;;5095021;28;20465;-60
2023/07/20 09:15:06;;;;;;;3.73;1.40;;;22.80;99.90;;;;;;5096288;28;20564;-60
2023/07/20 09:17:33;;;;;;;2.07;1.20;;;;;;;;;;5097802;28;20906;-59
2023/07/20 09:20:05;;;;;;;1.37;1.27;;;23.30;99.90;;;;;;5096996;28;20524;-61
2023/07/20 09:22:32;;;;;;;1.47;1.20;;;23.40;99.90;;;;;;5096846;28;20768;-61
2023/07/20 09:24:59;;;;;;;1.83;1.20;;;23.80;99.90;;;;;;5097241;28;20552;-60
2023/07/20 09:27:37;;;;;;;1.20;0.97;;;23.80;99.90;;;;;;5098040;28;20473;-61
2023/07/20 09:30:08;;;;;;;1.03;0.93;;;25.70;99.90;;;;;;5094535;28;20465;-61
2023/07/20 09:32:41;;;;;;;1.53;1.43;;;25.60;99.90;;;;;;5093771;28;20465;-61
2023/07/20 09:35:13;;;;;;;1.27;0.90;;;26.00;99.90;;;;;;5096438;28;20561;-60
2023/07/20 09:37:41;;;;;;;1.07;0.90;;;;;;;;;;5098327;28;20483;-60
2023/07/20 09:40:10;;;;;;;2.50;0.97;;;26.40;99.90;;;;;;5098137;28;20473;-58
2023/07/20 09:42:38;;;;;;;1.20;1.00;;;25.70;99.90;;;;;;5094400;28;20529;-61
2023/07/20 09:45:08;;;;;;;8.73;1.10;;;24.90;99.90;;;;;;5093889;28;20488;-61
2023/07/20 09:47:37;;;;;;;1.03;0.90;;;24.40;99.90;;;;;;5093967;28;20564;-60
2023/07/20 09:50:10;;;;;;;1.23;1.10;;;24.50;99.90;;;;;;5093898;28;20501;-60
2023/07/20 09:52:37;;;;;;;2.00;1.10;;;;;;;;;;5094450;28;20441;-61
2023/07/20 09:55:06;;;;;;;1.73;1.10;;;23.20;99.90;;;;;;5094433;28;20479;-59
2023/07/20 09:57:34;;;;;;;1.23;0.93;;;23.20;99.90;;;;;;5094287;28;20513;-59
2023/07/20 10:00:01;;;;;;;2.07;1.20;;;23.00;99.90;;;;;;5095019;28;20464;-61
2023/07/20 10:02:34;;;;;;;1.00;0.73;;;22.10;99.90;;;;;;5103155;28;20849;-61
2023/07/20 10:05:04;;;;;;;1.10;0.90;;;21.60;99.90;;;;;;5094254;28;20508;-61
2023/07/20 10:07:32;;;;;;;1.40;1.17;;;21.20;99.90;;;;;;5093615;28;20538;-61
2023/07/20 10:10:05;;;;;;;2.07;1.50;;;21.30;99.90;;;;;;5093803;28;20453;-58
2023/07/20 10:12:42;;;;;;;1.50;1.03;;;21.10;99.90;;;;;;5094287;28;20932;-61
2023/07/20 10:15:14;;;;;;;2.43;1.00;;;21.00;99.90;;;;;;5095180;28;20521;-61
2023/07/20 10:17:50;;;;;;;1.83;1.07;;;20.40;99.90;;;;;;5094264;28;20859;-60
2023/07/20 10:20:21;;;;;;;1.87;1.20;;;20.50;99.90;;;;;;5093590;28;20429;-60
2023/07/20 10:22:53;;;;;;;3.00;1.40;;;20.40;99.90;;;;;;5093650;28;20517;-60
2023/07/20 10:25:23;;;;;;;1.73;1.53;;;21.40;99.90;;;;;;5093889;28;20451;-58
2023/07/20 10:27:50;;;;;;;1.30;1.20;;;21.20;99.90;;;;;;5093524;28;20481;-61
2023/07/20 10:30:20;;;;;;;1.93;1.33;;;22.30;99.90;;;;;;5093862;28;20540;-61
2023/07/20 10:32:49;;;;;;;3.23;1.00;;;22.90;99.90;;;;;;5100152;28;20960;-62
2023/07/20 10:35:17;;;;;;;1.10;1.00;;;22.80;99.90;;;;;;5115282;28;20448;-61
2023/07/20 10:37:52;;;;;;;5.10;1.53;;;22.30;99.90;;;;;;5117385;28;20552;-60
2023/07/20 10:40:32;;;;;;;2.80;1.07;;;22.10;99.90;;;;;;5117678;28;20471;-59
2023/07/20 10:43:04;;;;;;;1.93;1.20;;;21.80;99.90;;;;;;5117950;28;20529;-59
2023/07/20 10:45:42;;;;;;;1.90;1.20;;;21.50;99.90;;;;;;5118734;28;20803;-61
2023/07/20 10:48:19;;;;;;;1.47;1.23;;;21.40;99.90;;;;;;5130984;28;20484;-60
2023/07/20 10:50:47;;;;;;;2.53;1.23;;;21.40;99.90;;;;;;5119456;28;20899;-61
2023/07/20 10:53:16;;;;;;;2.60;1.23;;;21.10;99.90;;;;;;5117810;28;20465;-61
2023/07/20 10:55:43;;;;;;;2.97;1.37;;;21.00;99.90;;;;;;5117489;28;20844;-61
2023/07/20 10:58:12;;;;;;;1.77;1.33;;;21.00;99.90;;;;;;5117338;28;20464;-57
2023/07/20 11:00:56;;;;;;;1.40;1.10;;;20.70;99.90;;;;;;5119652;28;20463;-60
2023/07/20 11:03:32;;;;;;;2.00;1.53;;;20.70;99.90;;;;;;5112165;28;20559;-59
2023/07/20 11:06:00;;;;;;;2.03;1.43;;;20.70;99.90;;;;;;5112515;28;20457;-59
2023/07/20 11:08:42;;;;;;;1.50;1.40;;;20.60;99.90;;;;;;5110608;28;20522;-61
2023/07/20 11:11:28;;;;;;;2.90;1.50;;;20.70;99.90;;;;;;5103128;28;20752;-60
2023/07/20 11:13:59;;;;;;;3.10;1.23;;;20.60;99.90;;;;;;5102763;28;20552;-59
2023/07/20 11:16:40;;;;;;;3.00;1.47;;;20.70;99.90;;;;;;5108922;28;20434;-59
2023/07/20 11:19:15;;;;;;;8.33;1.47;;;20.80;99.90;;;;;;5112701;28;20494;-60
2023/07/20 11:21:44;;;;;;;1.90;1.40;;;20.70;99.90;;;;;;5112744;28;20539;-59
2023/07/20 11:24:13;;;;;;;1.40;1.30;;;;;;;;;;5112601;28;20496;-61
2023/07/20 11:26:48;;;;;;;1.30;1.10;;;20.60;99.90;;;;;;5098390;28;20488;-59
2023/07/20 11:29:16;;;;;;;1.30;1.00;;;20.00;99.90;;;;;;5096398;28;20491;-59
2023/07/20 11:31:44;;;;;;;1.40;1.10;;;20.00;99.90;;;;;;5096292;28;20489;-59
2023/07/20 11:34:13;;;;;;;1.83;1.60;;;20.20;99.90;;;;;;5096079;28;21023;-61
2023/07/20 11:36:42;;;;;;;5.90;3.07;;;20.10;99.90;;;;;;5096564;28;20501;-60
2023/07/20 11:39:10;;;;;;;1.80;1.30;;;20.30;99.90;;;;;;5098684;28;20465;-58
2023/07/20 11:41:38;;;;;;;3.50;3.20;;;;;;;;;;5104126;28;20914;-61
2023/07/20 11:44:06;;;;;;;3.40;1.40;;;20.40;99.90;;;;;;5113935;28;20469;-58
2023/07/20 11:46:33;;;;;;;2.23;1.17;;;20.50;99.90;;;;;;5096700;28;20791;-61
2023/07/20 11:49:01;;;;;;;1.87;1.20;;;;;;;;;;5095581;28;20542;-60
2023/07/20 11:51:32;;;;;;;1.70;1.13;;;20.30;99.90;;;;;;5097574;28;20483;-61
2023/07/20 11:54:00;;;;;;;2.17;1.13;;;20.60;99.90;;;;;;5096263;28;20472;-59
2023/07/20 11:56:27;;;;;;;1.40;1.10;;;21.20;99.90;;;;;;5095931;28;20499;-60
2023/07/20 11:58:59;;;;;;;1.30;0.90;;;21.10;99.90;;;;;;5097504;28;20474;-61
2023/07/20 12:01:28;;;;;;;1.27;1.00;;;;;;;;;;5099094;28;20438;-61
2023/07/20 12:03:56;;;;;;;2.90;1.40;;;21.50;99.90;;;;;;5112147;28;20445;-59
2023/07/20 12:06:25;;;;;;;1.50;1.20;;;22.30;99.90;;;;;;5101071;28;20468;-59
2023/07/20 12:08:57;;;;;;;1.70;1.20;;;21.90;99.90;;;;;;5099366;28;20477;-60
2023/07/20 12:11:35;;;;;;;1.50;1.30;;;22.30;99.90;;;;;;5095781;28;20457;-59
2023/07/20 12:14:03;;;;;;;3.80;1.03;;;22.30;99.90;;;;;;5095660;28;20536;-60
2023/07/20 12:16:31;;;;;;;1.37;1.00;;;22.00;99.90;;;;;;5095759;28;20921;-59
2023/07/20 12:19:12;;;;;;;2.80;1.23;;;22.20;99.90;;;;;;5097927;28;20465;-59
2023/07/20 12:21:42;;;;;;;1.20;1.07;;;21.70;99.90;;;;;;5100896;28;20456;-60
2023/07/20 12:24:11;;;;;;;1.30;1.00;;;21.40;99.90;;;;;;5095600;28;20784;-59
2023/07/20 12:26:38;;;;;;;1.77;1.10;;;21.40;99.90;;;;;;5095101;28;20505;-61
2023/07/20 12:29:05;;;;;;;2.13;1.00;;;21.20;99.90;;;;;;5095077;28;20572;-59
2023/07/20 12:31:37;;;;;;;1.10;1.00;;;21.50;99.90;;;;;;5095291;28;20509;-61
2023/07/20 12:34:04;;;;;;;1.57;1.00;;;21.10;99.90;;;;;;5094775;28;20778;-60
2023/07/20 12:36:31;;;;;;;1.43;1.07;;;;;;;;;;5095331;28;20469;-59
2023/07/20 12:39:01;;;;;;;1.83;1.07;;;21.20;99.90;;;;;;5095328;28;20441;-60
2023/07/20 12:41:29;;;;;;;1.47;1.20;;;21.30;99.90;;;;;;5095210;28;20484;-60
2023/07/20 12:43:57;;;;;;;1.10;1.00;;;21.30;99.90;;;;;;5094835;28;20960;-59
2023/07/20 12:46:25;;;;;;;1.97;0.80;;;21.60;99.90;;;;;;5095227;28;20477;-60
2023/07/20 12:48:52;;;;;;;1.27;1.00;;;21.40;99.90;;;;;;5095873;28;20568;-60
2023/07/20 12:51:18;;;;;;;1.40;1.23;;;21.50;99.90;;;;;;5096043;28;20469;-61
2023/07/20 12:53:46;;;;;;;1.37;0.80;;;21.90;99.90;;;;;;5098687;28;20473;-62
2023/07/20 12:56:13;;;;;;;1.50;0.90;;;22.20;99.90;;;;;;5094670;28;20841;-62
2023/07/20 12:58:41;;;;;;;1.67;1.10;;;22.10;99.90;;;;;;5094810;28;20505;-60
2023/07/20 13:01:08;;;;;;;1.20;0.90;;;22.30;99.90;;;;;;5094972;28;20484;-59
2023/07/20 13:03:35;;;;;;;1.10;0.90;;;22.50;99.90;;;;;;5094695;28;20453;-58
2023/07/20 13:06:01;;;;;;;2.00;0.90;;;22.80;99.90;;;;;;5094788;28;20536;-62
2023/07/20 13:08:28;;;;;;;2.43;2.23;;;22.80;99.90;;;;;;5094198;28;20581;-61